createdAt,value
2022-09-12T00:00:45.531Z,98640.25
2022-09-12T00:03:12.802Z,98644.91
2022-09-12T00:05:45.504Z,98641.88
2022-09-12T00:08:13.717Z,98642.50
2022-09-12T00:10:42.931Z,98637.84
2022-09-12T00:13:11.308Z,98642.75
2022-09-12T00:15:42.860Z,98643.78
2022-09-12T00:18:14.455Z,98637.50
2022-09-12T00:20:46.954Z,98644.59
2022-09-12T00:23:14.955Z,98643.59
2022-09-12T00:25:47.290Z,98648.84
2022-09-12T00:28:16.811Z,98656.13
2022-09-12T00:30:45.729Z,98653.47
2022-09-12T00:33:14.327Z,98656.13
2022-09-12T00:35:45.804Z,98656.31
2022-09-12T00:38:14.148Z,98659.97
2022-09-12T00:40:42.649Z,98660.59
2022-09-12T00:43:32.606Z,98655.53
2022-09-12T00:46:05.511Z,98666.44
2022-09-12T00:48:38.459Z,98658.97
2022-09-12T00:51:06.225Z,98660.78
2022-09-12T00:53:33.654Z,98659.75
2022-09-12T00:56:01.692Z,98673.34
2022-09-12T00:58:34.411Z,98670.09
2022-09-12T01:01:01.919Z,98673.53
2022-09-12T01:03:29.446Z,98661.59
2022-09-12T01:05:56.831Z,98662.59
2022-09-12T01:08:26.550Z,98659.56
2022-09-12T01:10:54.685Z,98666.03
2022-09-12T01:13:22.582Z,98660.59
2022-09-12T01:15:49.862Z,98665.44
2022-09-12T01:18:32.282Z,98656.94
2022-09-12T01:21:30.303Z,98659.56
2022-09-12T01:24:17.392Z,98660.16
2022-09-12T01:27:03.066Z,98664.00
2022-09-12T01:30:07.451Z,98662.19
2022-09-12T01:33:02.094Z,98662.00
2022-09-12T01:35:54.030Z,98660.19
2022-09-12T01:38:33.138Z,98657.34
2022-09-12T01:41:37.159Z,98656.13
2022-09-12T01:44:12.961Z,98648.84
2022-09-12T01:46:49.197Z,98663.81
2022-09-12T01:49:36.738Z,98664.41
2022-09-12T01:52:37.911Z,98666.84
2022-09-12T01:55:12.830Z,98672.50
2022-09-12T01:57:47.107Z,98667.25
2022-09-12T02:00:14.915Z,98667.84
2022-09-12T02:02:51.965Z,98669.47
2022-09-12T02:05:31.163Z,98654.50
2022-09-12T02:08:17.221Z,98666.25
2022-09-12T02:10:50.829Z,98656.94
2022-09-12T02:13:38.397Z,98655.75
2022-09-12T02:16:32.008Z,98659.38
2022-09-12T02:19:05.939Z,98659.97
2022-09-12T02:21:35.125Z,98653.31
2022-09-12T02:24:03.603Z,98661.38
2022-09-12T02:26:44.435Z,98660.78
2022-09-12T02:29:11.702Z,98658.16
2022-09-12T02:31:46.618Z,98658.31
2022-09-12T02:34:41.874Z,98654.88
2022-09-12T02:37:13.110Z,98657.72
2022-09-12T02:39:44.999Z,98663.56
2022-09-12T02:42:13.378Z,98660.13
2022-09-12T02:44:41.178Z,98656.88
2022-09-12T02:47:19.634Z,98664.59
2022-09-12T02:49:47.413Z,98666.41
2022-09-12T02:52:15.255Z,98657.69
2022-09-12T02:54:43.657Z,98675.06
2022-09-12T02:57:23.155Z,98668.00
2022-09-12T02:59:54.999Z,98672.47
2022-09-12T03:02:30.375Z,98672.22
2022-09-12T03:05:00.522Z,98664.13
2022-09-12T03:07:39.756Z,98672.44
2022-09-12T03:10:24.718Z,98671.44
2022-09-12T03:13:06.817Z,98664.13
2022-09-12T03:15:55.644Z,98671.22
2022-09-12T03:18:40.951Z,98666.75
2022-09-12T03:21:17.065Z,98666.75
2022-09-12T03:23:53.416Z,98673.66
2022-09-12T03:26:31.122Z,98674.66
2022-09-12T03:28:59.390Z,98675.28
2022-09-12T03:31:26.705Z,98669.59
2022-09-12T03:33:53.902Z,98670.19
2022-09-12T03:36:26.351Z,98675.06
2022-09-12T03:38:53.942Z,98668.56
2022-09-12T03:41:21.525Z,98665.75
2022-09-12T03:43:49.292Z,98668.78
2022-09-12T03:46:16.545Z,98672.00
2022-09-12T03:48:43.794Z,98677.41
2022-09-12T03:51:11.500Z,98677.03
2022-09-12T03:53:38.763Z,98672.97
2022-09-12T03:56:10.938Z,98680.84
2022-09-12T03:58:38.706Z,98686.94
2022-09-12T04:01:14.515Z,98685.91
2022-09-12T04:03:46.997Z,98690.72
2022-09-12T04:06:18.072Z,98691.50
2022-09-12T04:08:48.957Z,98696.94
2022-09-12T04:11:17.384Z,98696.75
2022-09-12T04:13:45.501Z,98702.38
2022-09-12T04:16:14.161Z,98704.00
2022-09-12T04:18:42.076Z,98701.97
2022-09-12T04:21:12.596Z,98709.66
2022-09-12T04:23:39.821Z,98708.66
2022-09-12T04:26:08.091Z,98715.50
2022-09-12T04:28:37.268Z,98721.69
2022-09-12T04:31:11.441Z,98722.97
2022-09-12T04:33:38.969Z,98717.31
2022-09-12T04:36:08.834Z,98716.50
2022-09-12T04:38:36.805Z,98720.78
2022-09-12T04:41:14.125Z,98728.31
2022-09-12T04:43:42.139Z,98725.50
2022-09-12T04:46:11.538Z,98724.66
2022-09-12T04:48:39.169Z,98731.53
2022-09-12T04:51:11.708Z,98737.25
2022-09-12T04:53:39.702Z,98736.84
2022-09-12T04:56:08.890Z,98737.09
2022-09-12T04:58:36.504Z,98740.31
2022-09-12T05:01:10.747Z,98735.09
2022-09-12T05:03:39.578Z,98738.13
2022-09-12T05:06:09.794Z,98739.00
2022-09-12T05:08:37.415Z,98738.47
2022-09-12T05:11:11.330Z,98743.50
2022-09-12T05:13:39.313Z,98732.19
2022-09-12T05:16:07.937Z,98735.84
2022-09-12T05:18:36.729Z,98743.53
2022-09-12T05:21:08.003Z,98746.56
2022-09-12T05:23:35.644Z,98748.44
2022-09-12T05:26:05.509Z,98741.72
2022-09-12T05:28:36.196Z,98749.03
2022-09-12T05:31:24.782Z,98740.50
2022-09-12T05:33:53.758Z,98755.09
2022-09-12T05:36:24.327Z,98745.75
2022-09-12T05:38:51.958Z,98743.56
2022-09-12T05:41:24.963Z,98751.06
2022-09-12T05:43:57.934Z,98755.72
2022-09-12T05:46:27.845Z,98747.47
2022-09-12T05:48:56.832Z,98752.66
2022-09-12T05:51:41.709Z,98746.81
2022-09-12T05:54:12.059Z,98753.38
2022-09-12T05:56:43.947Z,98753.78
2022-09-12T05:59:14.367Z,98757.09
2022-09-12T06:01:42.258Z,98758.72
2022-09-12T06:04:10.029Z,98760.38
2022-09-12T06:06:41.695Z,98755.53
2022-09-12T06:09:09.942Z,98747.34
2022-09-12T06:11:40.787Z,98752.59
2022-09-12T06:14:10.051Z,98748.69
2022-09-12T06:16:37.865Z,98754.13
2022-09-12T06:19:08.296Z,98748.94
2022-09-12T06:21:35.580Z,98753.81
2022-09-12T06:24:02.957Z,98761.16
2022-09-12T06:26:30.904Z,98754.09
2022-09-12T06:29:00.357Z,98746.25
2022-09-12T06:31:34.707Z,98746.13
2022-09-12T06:34:05.364Z,98749.91
2022-09-12T06:36:36.822Z,98736.91
2022-09-12T06:39:23.296Z,98745.50
2022-09-12T06:41:52.065Z,98753.13
2022-09-12T06:44:29.710Z,98749.63
2022-09-12T06:46:58.691Z,98744.88
2022-09-12T06:49:25.913Z,98757.34
2022-09-12T06:51:53.137Z,98740.38
2022-09-12T06:54:20.466Z,98751.81
2022-09-12T06:56:47.650Z,98748.44
2022-09-12T06:59:15.064Z,98753.66
2022-09-12T07:01:42.441Z,98751.09
2022-09-12T07:04:10.170Z,98755.69
2022-09-12T07:06:42.311Z,98751.47
2022-09-12T07:09:16.358Z,98748.47
2022-09-12T07:11:44.974Z,98743.66
2022-09-12T07:14:14.230Z,98750.78
2022-09-12T07:16:42.028Z,98757.66
2022-09-12T07:19:10.326Z,98763.13
2022-09-12T07:21:40.191Z,98749.63
2022-09-12T07:24:09.951Z,98751.47
2022-09-12T07:26:38.758Z,98749.31
2022-09-12T07:29:32.743Z,98748.16
2022-09-12T07:31:53.921Z,98759.16
2022-09-12T07:34:21.250Z,98760.00
2022-09-12T07:36:48.427Z,98760.16
2022-09-12T07:39:15.671Z,98768.28
2022-09-12T07:41:42.888Z,98763.97
2022-09-12T07:44:10.422Z,98748.59
2022-09-12T07:46:38.336Z,98762.78
2022-09-12T07:49:05.541Z,98758.13
2022-09-12T07:51:32.859Z,98754.28
2022-09-12T07:54:00.314Z,98753.19
2022-09-12T07:56:31.256Z,98745.22
2022-09-12T07:58:59.290Z,98744.31
2022-09-12T08:01:27.130Z,98751.78
2022-09-12T08:03:57.341Z,98753.59
2022-09-12T08:06:26.361Z,98753.94
2022-09-12T08:08:56.233Z,98735.94
2022-09-12T08:11:24.604Z,98747.88
2022-09-12T08:13:55.409Z,98747.44
2022-09-12T08:16:26.255Z,98762.34
2022-09-12T08:18:53.847Z,98757.91
2022-09-12T08:21:27.014Z,98752.47
2022-09-12T08:23:56.784Z,98748.84
2022-09-12T08:26:24.818Z,98745.59
2022-09-12T08:28:53.254Z,98749.34
2022-09-12T08:31:23.037Z,98750.56
2022-09-12T08:33:50.711Z,98749.66
2022-09-12T08:36:23.989Z,98740.28
2022-09-12T08:38:59.871Z,98751.06
2022-09-12T08:41:35.081Z,98739.81
2022-09-12T08:44:30.119Z,98752.22
2022-09-12T08:47:03.238Z,98743.66
2022-09-12T08:49:45.206Z,98734.53
2022-09-12T08:52:18.163Z,98725.19
2022-09-12T08:54:45.901Z,98741.88
2022-09-12T08:57:15.076Z,98745.91
2022-09-12T08:59:46.356Z,98732.56
2022-09-12T09:02:42.113Z,98726.56
2022-09-12T09:05:23.241Z,98726.34
2022-09-12T09:07:59.288Z,98722.81
2022-09-12T09:10:45.349Z,98726.03
2022-09-12T09:13:50.904Z,98721.00
2022-09-12T09:16:30.636Z,98714.13
2022-09-12T09:19:02.262Z,98713.31
2022-09-12T09:21:42.952Z,98714.44
2022-09-12T09:24:14.683Z,98733.00
2022-09-12T09:27:23.559Z,98731.59
2022-09-12T09:29:55.822Z,98730.81
2022-09-12T09:32:38.059Z,98736.53
2022-09-12T09:35:44.365Z,98723.53
2022-09-12T09:38:31.888Z,98719.16
2022-09-12T09:41:05.228Z,98728.69
2022-09-12T09:43:32.634Z,98713.84
2022-09-12T09:46:02.895Z,98718.88
2022-09-12T09:48:33.014Z,98712.72
2022-09-12T09:51:02.127Z,98706.19
2022-09-12T09:56:09.685Z,98704.28
2022-09-12T09:58:37.195Z,98699.47
2022-09-12T10:01:06.533Z,98701.75
2022-09-12T10:03:39.113Z,98702.41
2022-09-12T10:06:22.313Z,98686.97
2022-09-12T10:08:50.524Z,98680.50
2022-09-12T10:11:22.125Z,98692.13
2022-09-12T10:13:51.477Z,98698.38
2022-09-12T10:16:19.454Z,98693.38
2022-09-12T10:18:46.774Z,98695.88
2022-09-12T10:21:23.382Z,98686.84
2022-09-12T10:24:19.549Z,98670.69
2022-09-12T10:26:56.582Z,98684.22
2022-09-12T10:29:31.630Z,98678.63
2022-09-12T10:32:04.865Z,98681.78
2022-09-12T10:34:39.260Z,98674.34
2022-09-12T10:37:10.572Z,98675.19
2022-09-12T10:39:38.894Z,98667.22
2022-09-12T10:42:06.417Z,98676.06
2022-09-12T10:44:35.514Z,98680.88
2022-09-12T10:47:23.977Z,98673.38
2022-09-12T10:49:51.247Z,98669.78
2022-09-12T10:52:23.653Z,98669.63
2022-09-12T10:54:52.167Z,98656.28
2022-09-12T10:57:22.215Z,98669.16
2022-09-12T11:00:14.579Z,98664.91
2022-09-12T11:03:09.277Z,98661.75
2022-09-12T11:05:53.802Z,98664.91
2022-09-12T11:08:30.062Z,98671.53
2022-09-12T11:11:07.770Z,98674.22
2022-09-12T11:13:52.742Z,98667.91
2022-09-12T11:16:44.187Z,98674.91
2022-09-12T11:19:23.805Z,98678.84
2022-09-12T11:22:00.203Z,98677.25
2022-09-12T11:25:07.375Z,98679.19
2022-09-12T11:27:52.378Z,98660.91
2022-09-12T11:30:19.685Z,98658.03
2022-09-12T11:33:09.261Z,98659.22
2022-09-12T11:35:55.015Z,98654.66
2022-09-12T11:38:43.943Z,98652.25
2022-09-12T11:41:34.771Z,98647.56
2022-09-12T11:44:15.369Z,98657.06
2022-09-12T11:46:46.666Z,98654.38
2022-09-12T11:49:36.809Z,98645.03
2022-09-12T11:52:18.719Z,98643.72
2022-09-12T11:55:27.278Z,98644.78
2022-09-12T11:57:56.815Z,98659.25
2022-09-12T12:00:33.125Z,98650.56
2022-09-12T12:03:07.915Z,98644.50
2022-09-12T12:05:47.903Z,98640.50
2022-09-12T12:08:15.666Z,98637.81
2022-09-12T12:10:56.405Z,98638.53
2022-09-12T12:13:46.633Z,98625.75
2022-09-12T12:16:20.189Z,98621.78
2022-09-12T12:18:55.690Z,98630.88
2022-09-12T12:21:37.905Z,98640.25
2022-09-12T12:24:08.201Z,98630.94
2022-09-12T12:26:41.479Z,98633.97
2022-09-12T12:29:17.483Z,98626.44
2022-09-12T12:32:10.431Z,98626.06
2022-09-12T12:34:40.529Z,98639.63
2022-09-12T12:37:19.813Z,98641.41
2022-09-12T12:39:48.124Z,98644.44
2022-09-12T12:42:35.554Z,98635.94
2022-09-12T12:45:08.342Z,98635.03
2022-09-12T12:47:38.627Z,98619.09
2022-09-12T12:50:10.627Z,98611.63
2022-09-12T12:52:54.170Z,98612.81
2022-09-12T12:55:28.978Z,98607.53
2022-09-12T12:57:58.058Z,98616.41
2022-09-12T13:00:25.395Z,98610.84
2022-09-12T13:02:59.711Z,98610.06
2022-09-12T13:05:29.634Z,98610.72
2022-09-12T13:08:06.742Z,98614.28
2022-09-12T13:10:34.620Z,98619.41
2022-09-12T13:13:05.279Z,98608.44
2022-09-12T13:15:35.601Z,98606.91
2022-09-12T13:18:10.349Z,98601.59
2022-09-12T13:21:09.068Z,98608.47
2022-09-12T13:23:36.578Z,98605.03
2022-09-12T13:26:10.095Z,98609.84
2022-09-12T13:28:37.327Z,98597.97
2022-09-12T13:31:24.809Z,98589.13
2022-09-12T13:34:02.665Z,98594.63
2022-09-12T13:36:51.745Z,98585.56
2022-09-12T13:39:21.960Z,98591.19
2022-09-12T13:42:13.938Z,98587.91
2022-09-12T13:44:56.051Z,98583.19
2022-09-12T13:47:46.950Z,98590.72
2022-09-12T13:50:19.520Z,98581.53
2022-09-12T13:52:53.258Z,98584.19
2022-09-12T13:55:41.560Z,98581.47
2022-09-12T13:58:27.067Z,98584.28
2022-09-12T14:01:10.542Z,98570.81
2022-09-12T14:04:06.779Z,98573.38
2022-09-12T14:06:46.573Z,98574.59
2022-09-12T14:09:25.227Z,98585.13
2022-09-12T14:11:53.774Z,98577.09
2022-09-12T14:14:31.457Z,98576.84
2022-09-12T14:17:00.177Z,98583.25
2022-09-12T14:19:29.359Z,98572.09
2022-09-12T14:21:57.660Z,98576.41
2022-09-12T14:24:25.305Z,98588.56
2022-09-12T14:26:54.268Z,98584.16
2022-09-12T14:29:22.725Z,98593.00
2022-09-12T14:32:02.567Z,98593.09
2022-09-12T14:34:29.886Z,98592.97
2022-09-12T14:36:57.856Z,98592.44
2022-09-12T14:39:37.884Z,98581.50
2022-09-12T14:42:16.532Z,98572.06
2022-09-12T14:44:58.740Z,98586.50
2022-09-12T14:47:29.592Z,98576.72
2022-09-12T14:49:57.595Z,98573.94
2022-09-12T14:52:29.310Z,98578.34
2022-09-12T14:55:28.146Z,98575.97
2022-09-12T14:58:20.156Z,98571.41
2022-09-12T15:01:06.244Z,98575.41
2022-09-12T15:03:51.950Z,98578.06
2022-09-12T15:06:31.229Z,98574.41
2022-09-12T15:09:02.383Z,98578.50
2022-09-12T15:11:29.617Z,98578.50
2022-09-12T15:13:56.849Z,98577.59
2022-09-12T15:16:24.083Z,98570.28
2022-09-12T15:18:51.311Z,98571.41
2022-09-12T15:21:20.245Z,98572.94
2022-09-12T15:23:50.186Z,98567.47
2022-09-12T15:26:20.752Z,98560.97
2022-09-12T15:28:48.547Z,98564.66
2022-09-12T15:31:21.800Z,98565.06
2022-09-12T15:33:49.106Z,98565.31
2022-09-12T15:36:18.969Z,98568.19
2022-09-12T15:38:47.459Z,98560.78
2022-09-12T15:41:20.367Z,98568.59
2022-09-12T15:43:48.769Z,98561.59
2022-09-12T15:46:17.725Z,98560.91
2022-09-12T15:48:45.751Z,98556.47
2022-09-12T15:51:15.771Z,98554.22
2022-09-12T15:53:43.832Z,98554.22
2022-09-12T15:56:11.256Z,98560.47
2022-09-12T15:58:46.016Z,98557.25
2022-09-12T16:01:24.764Z,98549.50
2022-09-12T16:03:52.174Z,98553.97
2022-09-12T16:06:19.410Z,98553.97
2022-09-12T16:08:46.700Z,98556.19
2022-09-12T16:11:22.834Z,98563.16
2022-09-12T16:13:52.133Z,98549.88
2022-09-12T16:16:19.757Z,98546.53
2022-09-12T16:18:47.251Z,98555.91
2022-09-12T16:21:15.685Z,98548.19
2022-09-12T16:23:44.210Z,98553.13
2022-09-12T16:26:11.495Z,98552.31
2022-09-12T16:28:38.967Z,98557.63
2022-09-12T16:31:08.004Z,98548.78
2022-09-12T16:33:37.853Z,98550.88
2022-09-12T16:36:06.585Z,98557.00
2022-09-12T16:38:35.809Z,98547.81
2022-09-12T16:41:05.803Z,98544.13
2022-09-12T16:43:34.367Z,98551.84
2022-09-12T16:46:16.046Z,98552.78
2022-09-12T16:48:50.993Z,98549.94
2022-09-12T16:51:22.091Z,98547.06
2022-09-12T16:53:49.504Z,98557.06
2022-09-12T16:56:17.610Z,98553.78
2022-09-12T16:58:45.585Z,98555.47
2022-09-12T17:01:14.241Z,98545.31
2022-09-12T17:03:42.461Z,98543.06
2022-09-12T17:06:12.101Z,98547.66
2022-09-12T17:08:42.554Z,98546.13
2022-09-12T17:11:21.931Z,98543.97
2022-09-12T17:14:05.347Z,98550.63
2022-09-12T17:16:39.519Z,98555.81
2022-09-12T17:19:07.540Z,98549.34
2022-09-12T17:21:35.488Z,98549.81
2022-09-12T17:24:03.585Z,98552.72
2022-09-12T17:26:30.950Z,98551.78
2022-09-12T17:28:58.301Z,98558.56
2022-09-12T17:31:26.600Z,98562.00
2022-09-12T17:33:58.539Z,98565.44
2022-09-12T17:36:26.817Z,98562.91
2022-09-12T17:38:54.307Z,98568.41
2022-09-12T17:41:23.949Z,98568.88
2022-09-12T17:43:57.236Z,98578.66
2022-09-12T17:46:29.703Z,98579.47
2022-09-12T17:48:57.835Z,98573.22
2022-09-12T17:51:26.330Z,98580.78
2022-09-12T17:54:15.697Z,98586.97
2022-09-12T17:56:44.324Z,98583.34
2022-09-12T17:59:15.214Z,98589.09
2022-09-12T18:02:01.259Z,98593.06
2022-09-12T18:04:28.693Z,98603.13
2022-09-12T18:06:57.656Z,98610.03
2022-09-12T18:09:28.448Z,98601.75
2022-09-12T18:11:56.274Z,98610.56
2022-09-12T18:14:24.755Z,98610.19
2022-09-12T18:16:52.472Z,98609.78
2022-09-12T18:19:19.847Z,98613.63
2022-09-12T18:21:47.151Z,98606.19
2022-09-12T18:24:14.917Z,98609.91
2022-09-12T18:26:43.656Z,98612.13
2022-09-12T18:29:11.463Z,98619.66
2022-09-12T18:31:38.769Z,98627.81
2022-09-12T18:34:07.744Z,98625.84
2022-09-12T18:36:34.949Z,98624.50
2022-09-12T18:39:02.187Z,98611.53
2022-09-12T18:41:29.394Z,98619.38
2022-09-12T18:44:01.264Z,98622.41
2022-09-12T18:46:30.171Z,98612.63
2022-09-12T18:48:59.025Z,98620.09
2022-09-12T18:51:31.653Z,98613.44
2022-09-12T18:54:05.378Z,98613.88
2022-09-12T18:56:34.617Z,98619.06
2022-09-12T18:59:05.127Z,98616.97
2022-09-12T19:01:35.490Z,98618.06
2022-09-12T19:04:06.072Z,98610.56
2022-09-12T19:06:39.629Z,98620.56
2022-09-12T19:09:08.984Z,98627.00
2022-09-12T19:11:38.463Z,98621.72
2022-09-12T19:14:06.727Z,98612.69
2022-09-12T19:16:34.776Z,98616.13
2022-09-12T19:19:02.684Z,98615.38
2022-09-12T19:21:31.327Z,98609.28
2022-09-12T19:24:04.615Z,98614.38
2022-09-12T19:26:32.789Z,98616.53
2022-09-12T19:29:02.495Z,98616.16
2022-09-12T19:31:30.591Z,98613.28
2022-09-12T19:34:02.102Z,98616.44
2022-09-12T19:36:46.643Z,98626.19
2022-09-12T19:39:16.421Z,98628.47
2022-09-12T19:41:44.951Z,98634.59
2022-09-12T19:44:12.656Z,98620.47
2022-09-12T19:46:40.505Z,98628.84
2022-09-12T19:49:09.366Z,98621.91
2022-09-12T19:51:36.612Z,98628.22
2022-09-12T19:54:04.033Z,98617.91
2022-09-12T19:56:31.298Z,98623.25
2022-09-12T19:58:58.624Z,98619.84
2022-09-12T20:01:30.212Z,98618.50
2022-09-12T20:03:58.245Z,98619.53
2022-09-12T20:06:26.466Z,98616.66
2022-09-12T20:08:54.158Z,98619.53
2022-09-12T20:11:23.551Z,98614.09
2022-09-12T20:13:51.927Z,98609.84
2022-09-12T20:16:25.831Z,98613.31
2022-09-12T20:18:55.859Z,98611.19
2022-09-12T20:21:25.697Z,98613.44
2022-09-12T20:23:52.927Z,98615.66
2022-09-12T20:26:20.515Z,98609.84
2022-09-12T20:28:48.044Z,98607.41
2022-09-12T20:31:16.565Z,98612.13
2022-09-12T20:33:47.520Z,98615.19
2022-09-12T20:36:19.498Z,98614.84
2022-09-12T20:38:50.443Z,98610.81
2022-09-12T20:41:19.017Z,98616.13
2022-09-12T20:43:50.175Z,98606.19
2022-09-12T20:46:21.650Z,98608.88
2022-09-12T20:48:50.832Z,98620.03
2022-09-12T20:51:19.208Z,98621.47
2022-09-12T20:53:46.961Z,98616.84
2022-09-12T20:56:15.086Z,98619.50
2022-09-12T20:58:44.399Z,98618.06
2022-09-12T21:01:13.909Z,98625.56
2022-09-12T21:03:42.602Z,98627.97
2022-09-12T21:06:12.553Z,98631.03
2022-09-12T21:08:40.297Z,98629.81
2022-09-12T21:11:07.714Z,98625.75
2022-09-12T21:13:35.689Z,98627.41
2022-09-12T21:16:05.839Z,98625.56
2022-09-12T21:18:34.555Z,98624.94
2022-09-12T21:21:02.002Z,98627.41
2022-09-12T21:23:29.671Z,98624.94
2022-09-12T21:25:58.922Z,98622.53
2022-09-12T21:28:26.687Z,98627.84
2022-09-12T21:30:54.007Z,98636.13
2022-09-12T21:33:21.536Z,98631.31
2022-09-12T21:35:49.666Z,98627.50
2022-09-12T21:38:18.219Z,98631.34
2022-09-12T21:40:46.731Z,98628.50
2022-09-12T21:43:14.651Z,98631.75
2022-09-12T21:45:42.099Z,98626.72
2022-09-12T21:48:09.345Z,98621.84
2022-09-12T21:50:36.583Z,98625.69
2022-09-12T21:53:03.844Z,98624.84
2022-09-12T21:55:31.166Z,98631.31
2022-09-12T21:57:58.415Z,98634.31
2022-09-12T22:00:25.665Z,98627.41
2022-09-12T22:02:53.767Z,98625.56
2022-09-12T22:05:24.663Z,98617.66
2022-09-12T22:07:52.546Z,98628.38
2022-09-12T22:10:19.800Z,98620.47
2022-09-12T22:12:47.061Z,98626.97
2022-09-12T22:15:39.659Z,98619.50
2022-09-12T22:18:02.282Z,98619.91
2022-09-12T22:20:29.673Z,98614.00
2022-09-12T22:23:15.822Z,98610.78
2022-09-12T22:25:43.215Z,98615.84
2022-09-12T22:28:10.763Z,98619.47
2022-09-12T22:30:38.658Z,98604.22
2022-09-12T22:33:05.859Z,98608.88
2022-09-12T22:35:33.080Z,98604.81
2022-09-12T22:38:00.291Z,98610.44
2022-09-12T22:40:27.640Z,98606.47
2022-09-12T22:42:55.012Z,98600.38
2022-09-12T22:45:22.210Z,98606.03
2022-09-12T22:47:49.443Z,98611.69
2022-09-12T22:50:16.720Z,98607.63
2022-09-12T22:52:44.427Z,98612.09
2022-09-12T22:55:11.711Z,98608.66
2022-09-12T22:57:39.691Z,98605.03
2022-09-12T23:00:10.522Z,98610.94
2022-09-12T23:02:38.168Z,98618.03
2022-09-12T23:05:06.152Z,98616.19
2022-09-12T23:07:33.727Z,98606.94
2022-09-12T23:10:00.979Z,98602.91
2022-09-12T23:12:28.171Z,98598.56
2022-09-12T23:14:55.388Z,98605.06
2022-09-12T23:17:22.729Z,98603.66
2022-09-12T23:19:49.928Z,98602.63
2022-09-12T23:22:17.162Z,98611.56
2022-09-12T23:24:44.543Z,98606.91
2022-09-12T23:27:11.798Z,98601.47
2022-09-12T23:29:39.013Z,98611.38
2022-09-12T23:32:06.801Z,98608.97
2022-09-12T23:34:34.097Z,98610.59
2022-09-12T23:37:01.339Z,98613.44
2022-09-12T23:39:28.678Z,98609.78
2022-09-12T23:41:55.883Z,98611.19
2022-09-12T23:44:23.102Z,98610.81
2022-09-12T23:46:50.331Z,98612.66
2022-09-12T23:49:17.735Z,98617.69
2022-09-12T23:51:44.950Z,98618.91
2022-09-12T23:54:12.182Z,98611.03
2022-09-12T23:56:39.401Z,98613.25
2022-09-12T23:59:06.697Z,98611.44
